Time;durP1;ratioP1;P1;durP2;ratioP2;P2;SDS_P1;SDS_P2;PMS_P1;PMS_P2;Temp;Humidity;BMP_temperature;BMP_pressure;BME280_temperature;BME280_humidity;BME280_pressure;Samples;Min_cycle;Max_cycle;Signal;HPM_P1;HPM_P2
2022/08/18 00:01:39;;;;;;;10.05;8.77;;;18.40;99.90;;;;;;5073514;28;20036;-78
2022/08/18 00:04:06;;;;;;;13.80;9.63;;;18.40;99.90;;;;;;5055617;28;20024;-78
2022/08/18 00:06:31;;;;;;;10.60;8.23;;;18.40;99.90;;;;;;5073784;28;20037;-78
2022/08/18 00:09:05;;;;;;;12.40;8.57;;;18.40;99.90;;;;;;5058764;28;20029;-78
2022/08/18 00:11:38;;;;;;;13.73;8.52;;;18.40;99.90;;;;;;5060136;28;20025;-78
2022/08/18 00:14:04;;;;;;;10.68;8.55;;;18.40;99.90;;;;;;5067285;28;20103;-78
2022/08/18 00:16:29;;;;;;;9.60;8.02;;;18.40;99.90;;;;;;5073275;28;20123;-78
2022/08/18 00:18:55;;;;;;;11.75;8.77;;;18.40;99.90;;;;;;5072743;28;20075;-78
2022/08/18 00:21:20;;;;;;;10.77;8.10;;;18.40;99.90;;;;;;5073050;28;20103;-78
2022/08/18 00:23:46;;;;;;;12.82;8.00;;;18.40;99.90;;;;;;5073527;28;20031;-78
2022/08/18 00:26:12;;;;;;;12.48;9.07;;;18.50;99.90;;;;;;5073454;28;20024;-78
2022/08/18 00:28:38;;;;;;;11.05;8.48;;;18.40;99.90;;;;;;5073245;28;20044;-78
2022/08/18 00:31:05;;;;;;;9.95;7.30;;;18.40;99.90;;;;;;5072949;28;20040;-78
2022/08/18 00:33:30;;;;;;;10.45;7.80;;;18.40;99.90;;;;;;5072984;28;20017;-78
2022/08/18 00:35:56;;;;;;;9.18;7.80;;;18.40;99.90;;;;;;5072937;28;20491;-78
2022/08/18 00:38:22;;;;;;;9.05;7.47;;;18.40;99.90;;;;;;5072787;28;20028;-78
2022/08/18 00:40:50;;;;;;;11.23;8.10;;;18.30;99.90;;;;;;5072740;28;20029;-78
2022/08/18 00:43:50;;;;;;;9.05;8.07;;;18.30;99.90;;;;;;5054555;28;20844;-78
2022/08/18 00:46:19;;;;;;;9.88;7.60;;;18.30;99.90;;;;;;5049547;28;20050;-78
2022/08/18 00:48:45;;;;;;;9.20;7.53;;;18.30;99.90;;;;;;5072391;28;20028;-78
2022/08/18 00:51:22;;;;;;;11.45;7.60;;;18.30;99.90;;;;;;5072143;28;20060;-78
2022/08/18 00:53:57;;;;;;;9.02;7.28;;;18.30;99.90;;;;;;5071461;28;20052;-78
2022/08/18 00:56:27;;;;;;;9.38;8.35;;;18.30;99.90;;;;;;5072299;28;20059;-78
2022/08/18 00:59:06;;;;;;;10.40;8.00;;;18.20;99.90;;;;;;5072010;28;20106;-78
2022/08/18 01:01:33;;;;;;;9.88;8.18;;;18.20;99.90;;;;;;5072326;28;20094;-78
2022/08/18 01:04:11;;;;;;;10.13;7.72;;;18.20;99.90;;;;;;5072191;28;20377;-78
2022/08/18 01:06:45;;;;;;;9.07;7.40;;;18.20;99.90;;;;;;5072390;28;20023;-78
2022/08/18 01:09:11;;;;;;;8.70;7.70;;;18.20;99.90;;;;;;5059084;28;20074;-78
2022/08/18 01:11:37;;;;;;;8.40;7.53;;;18.20;99.90;;;;;;5066048;28;20033;-78
2022/08/18 01:14:06;;;;;;;8.70;7.50;;;18.20;99.90;;;;;;5065843;28;20380;-78
2022/08/18 01:22:13;;;;;;;7.93;7.00;;;18.20;99.90;;;;;;5072163;28;20142;-78
2022/08/18 01:27:25;;;;;;;14.18;8.93;;;18.10;99.90;;;;;;5071610;28;20444;-78
2022/08/18 01:29:51;;;;;;;12.10;8.23;;;18.00;99.90;;;;;;5071740;28;20052;-78
2022/08/18 01:32:21;;;;;;;10.55;7.80;;;18.00;99.90;;;;;;5070563;28;20473;-78
2022/08/18 01:34:48;;;;;;;9.93;7.20;;;18.00;99.90;;;;;;5071703;28;20029;-79
2022/08/18 01:37:20;;;;;;;10.60;8.30;;;18.00;99.90;;;;;;5065771;28;20020;-78
2022/08/18 01:39:46;;;;;;;10.32;7.35;;;18.00;99.90;;;;;;5040137;28;20033;-79
2022/08/18 01:42:15;;;;;;;9.82;8.27;;;17.90;99.90;;;;;;5071580;28;20032;-78
2022/08/18 01:44:42;;;;;;;9.02;8.10;;;17.90;99.90;;;;;;5071410;28;20070;-78
2022/08/18 01:47:10;;;;;;;9.18;8.20;;;17.90;99.90;;;;;;5071263;28;20040;-78
2022/08/18 01:49:36;;;;;;;8.68;7.78;;;17.80;99.90;;;;;;5071288;28;20103;-78
2022/08/18 01:52:05;;;;;;;9.73;8.73;;;17.80;99.90;;;;;;5065323;28;20076;-78
2022/08/18 01:54:31;;;;;;;9.70;7.78;;;17.80;99.90;;;;;;5066992;28;20374;-78
2022/08/18 01:56:58;;;;;;;9.60;8.05;;;17.80;99.90;;;;;;5071378;28;20036;-78
2022/08/18 01:59:24;;;;;;;9.25;8.00;;;17.70;99.90;;;;;;5071130;28;20025;-78
2022/08/18 02:01:51;;;;;;;9.45;7.22;;;17.70;99.90;;;;;;5061081;28;20083;-78
2022/08/18 02:04:17;;;;;;;8.85;7.93;;;17.60;99.90;;;;;;5070981;28;20090;-78
2022/08/18 02:06:43;;;;;;;8.57;7.47;;;17.70;99.90;;;;;;5070931;28;20036;-78
2022/08/18 02:09:09;;;;;;;9.65;7.88;;;17.60;99.90;;;;;;5070891;28;20469;-78
2022/08/18 02:11:34;;;;;;;8.20;7.07;;;17.60;99.90;;;;;;5067878;28;20060;-78
2022/08/18 02:14:00;;;;;;;12.13;8.75;;;17.50;99.90;;;;;;5070814;28;20047;-79
2022/08/18 02:16:26;;;;;;;11.70;7.72;;;17.50;99.90;;;;;;5070528;28;20021;-78
2022/08/18 02:18:52;;;;;;;10.95;7.60;;;17.50;99.90;;;;;;5070772;28;20081;-79
2022/08/18 02:21:19;;;;;;;12.00;8.25;;;17.50;99.90;;;;;;5070758;28;20086;-78
2022/08/18 02:23:45;;;;;;;9.35;7.85;;;17.40;99.90;;;;;;5057789;28;20032;-78
2022/08/18 02:26:13;;;;;;;8.77;7.88;;;17.40;99.90;;;;;;5052771;28;20035;-79
2022/08/18 02:28:40;;;;;;;8.35;7.55;;;17.40;99.90;;;;;;5070447;28;20056;-79
2022/08/18 02:31:08;;;;;;;9.40;8.38;;;17.40;99.90;;;;;;5052752;28;20052;-78
2022/08/18 02:33:33;;;;;;;8.82;7.18;;;17.30;99.90;;;;;;5070346;28;20082;-78
2022/08/18 02:36:00;;;;;;;8.85;7.72;;;17.30;99.90;;;;;;5070712;28;20024;-78
2022/08/18 02:38:25;;;;;;;11.73;9.38;;;17.30;99.90;;;;;;5065356;28;20024;-78
2022/08/18 02:40:56;;;;;;;12.13;8.50;;;17.30;99.90;;;;;;5070791;28;20024;-78
2022/08/18 02:43:22;;;;;;;8.57;7.68;;;17.30;99.90;;;;;;5072286;28;20036;-78
2022/08/18 02:45:47;;;;;;;10.07;7.80;;;17.30;99.90;;;;;;5073931;28;20074;-78
2022/08/18 02:48:13;;;;;;;8.88;7.97;;;17.20;99.90;;;;;;5066806;28;20033;-79
2022/08/18 02:50:47;;;;;;;9.18;7.75;;;17.20;99.90;;;;;;5070720;28;20027;-78
2022/08/18 02:53:20;;;;;;;8.50;7.50;;;17.20;99.90;;;;;;5073978;28;20108;-79
2022/08/18 02:55:45;;;;;;;8.38;7.57;;;17.20;99.90;;;;;;5073976;28;20025;-79
2022/08/18 02:58:12;;;;;;;9.35;7.75;;;17.10;99.90;;;;;;5074140;28;20443;-78
2022/08/18 03:00:38;;;;;;;8.60;7.53;;;17.10;99.90;;;;;;5073339;28;20013;-79
2022/08/18 03:03:04;;;;;;;9.00;8.07;;;17.10;99.90;;;;;;5066307;28;20058;-78
2022/08/18 03:05:29;;;;;;;9.23;8.18;;;17.10;99.90;;;;;;5069020;28;20041;-79
2022/08/18 03:07:55;;;;;;;9.82;7.13;;;17.10;99.90;;;;;;5073902;28;20035;-78
2022/08/18 03:10:21;;;;;;;10.43;7.70;;;17.00;99.90;;;;;;5073752;28;20538;-79
2022/08/18 03:12:46;;;;;;;8.57;7.68;;;17.00;99.90;;;;;;5068805;28;20028;-78
2022/08/18 03:15:12;;;;;;;9.07;7.80;;;16.90;99.90;;;;;;5073807;28;20025;-79
2022/08/18 03:17:38;;;;;;;9.98;7.95;;;16.90;99.90;;;;;;5073805;28;20037;-78
2022/08/18 03:20:05;;;;;;;8.80;7.75;;;16.90;99.90;;;;;;5082629;28;20035;-78
2022/08/18 03:22:31;;;;;;;9.95;8.00;;;16.80;99.90;;;;;;5078330;28;20021;-78
2022/08/18 03:24:57;;;;;;;11.65;8.00;;;16.80;99.90;;;;;;5072779;28;20047;-78
2022/08/18 03:27:23;;;;;;;8.77;7.85;;;16.80;99.90;;;;;;5073576;28;20037;-78
2022/08/18 03:29:49;;;;;;;8.38;7.53;;;16.80;99.90;;;;;;5073262;28;20068;-78
2022/08/18 03:32:15;;;;;;;8.88;7.93;;;16.80;99.90;;;;;;5073504;28;20027;-79
2022/08/18 03:34:42;;;;;;;11.68;8.95;;;16.80;99.90;;;;;;5073101;28;20481;-78
2022/08/18 03:37:08;;;;;;;16.50;8.43;;;16.70;99.90;;;;;;5053255;28;20423;-79
2022/08/18 03:39:33;;;;;;;9.35;8.13;;;16.70;99.90;;;;;;5068890;28;20024;-78
2022/08/18 03:41:59;;;;;;;10.85;8.32;;;16.70;99.90;;;;;;5073278;28;20033;-78
2022/08/18 03:44:26;;;;;;;9.90;8.00;;;16.70;99.90;;;;;;5073389;28;20520;-79
2022/08/18 03:46:52;;;;;;;10.45;8.35;;;16.70;99.90;;;;;;5073369;28;20033;-79
2022/08/18 03:49:19;;;;;;;9.85;7.90;;;16.60;99.90;;;;;;5072832;28;20086;-79
2022/08/18 03:51:45;;;;;;;9.63;7.85;;;16.70;99.90;;;;;;5073274;28;20473;-79
2022/08/18 03:54:12;;;;;;;8.98;7.82;;;16.60;99.90;;;;;;5072720;28;20489;-79
2022/08/18 03:56:39;;;;;;;8.65;7.75;;;16.60;99.90;;;;;;5063517;28;20052;-79
2022/08/18 03:59:16;;;;;;;9.70;8.30;;;16.60;99.90;;;;;;5072905;28;20082;-79
2022/08/18 04:01:44;;;;;;;9.52;8.20;;;16.60;99.90;;;;;;5073328;28;20060;-79
2022/08/18 04:04:17;;;;;;;10.15;7.75;;;16.60;99.90;;;;;;5073050;28;20032;-79
2022/08/18 04:06:49;;;;;;;11.18;8.65;;;16.50;99.90;;;;;;5073041;28;20023;-78
2022/08/18 04:09:15;;;;;;;10.48;7.95;;;16.60;99.90;;;;;;5072210;28;20028;-78
2022/08/18 04:11:43;;;;;;;8.90;8.00;;;16.50;99.90;;;;;;5068673;28;20083;-79
2022/08/18 04:14:12;;;;;;;9.25;7.93;;;16.50;99.90;;;;;;5076677;28;20032;-80
2022/08/18 04:16:39;;;;;;;9.07;8.15;;;16.50;99.90;;;;;;5077862;28;20073;-80
2022/08/18 04:19:05;;;;;;;9.25;7.65;;;16.40;99.90;;;;;;5079267;28;20066;-80
2022/08/18 04:21:33;;;;;;;9.30;7.75;;;16.40;99.90;;;;;;5081814;28;20013;-80
2022/08/18 04:24:02;;;;;;;9.10;7.55;;;16.40;99.90;;;;;;5080360;28;20468;-80
2022/08/18 04:26:28;;;;;;;10.57;7.88;;;16.40;99.90;;;;;;5086676;28;20095;-78
2022/08/18 04:28:54;;;;;;;9.95;7.85;;;16.40;99.90;;;;;;5084049;28;20189;-77
2022/08/18 04:31:23;;;;;;;9.23;7.78;;;16.40;99.90;;;;;;5085480;28;20024;-78
2022/08/18 04:33:49;;;;;;;8.57;7.78;;;16.40;99.90;;;;;;5083901;28;20032;-78
2022/08/18 04:36:15;;;;;;;13.50;8.48;;;16.40;99.90;;;;;;5085154;28;20028;-78
2022/08/18 04:38:41;;;;;;;10.77;8.00;;;16.40;99.90;;;;;;5083012;28;20115;-78
2022/08/18 04:41:08;;;;;;;11.10;8.10;;;16.50;99.90;;;;;;5060306;28;20537;-77
2022/08/18 04:43:34;;;;;;;9.50;7.80;;;16.50;99.90;;;;;;5079477;28;20024;-78
2022/08/18 04:46:00;;;;;;;10.10;7.90;;;16.50;99.90;;;;;;5067859;28;20044;-78
2022/08/18 04:48:38;;;;;;;8.25;7.45;;;16.50;99.90;;;;;;5061510;28;20021;-77
2022/08/18 04:51:10;;;;;;;9.20;7.35;;;16.50;99.90;;;;;;5064204;28;20040;-78
2022/08/18 04:53:46;;;;;;;11.93;8.00;;;16.50;99.90;;;;;;5057523;28;20115;-78
2022/08/18 04:56:21;;;;;;;9.40;7.82;;;16.50;99.90;;;;;;5060750;28;20122;-80
2022/08/18 04:58:51;;;;;;;8.15;7.30;;;16.60;99.90;;;;;;5058886;28;20028;-80
2022/08/18 05:01:19;;;;;;;7.53;6.72;;;16.60;99.90;;;;;;5061357;28;20021;-80
2022/08/18 05:03:45;;;;;;;7.53;6.72;;;16.60;99.90;;;;;;5065648;28;20052;-80
2022/08/18 05:06:10;;;;;;;8.45;7.65;;;16.60;99.90;;;;;;5068011;28;20055;-80
2022/08/18 05:08:36;;;;;;;10.65;8.43;;;16.70;99.90;;;;;;5066075;28;20040;-80
2022/08/18 05:11:04;;;;;;;8.48;7.50;;;16.80;99.90;;;;;;5062469;28;20023;-80
2022/08/18 05:13:30;;;;;;;9.50;7.55;;;16.80;99.90;;;;;;5063387;28;20073;-80
2022/08/18 05:15:57;;;;;;;9.35;8.02;;;16.90;99.90;;;;;;5061751;28;20166;-80
2022/08/18 05:18:25;;;;;;;10.88;8.23;;;16.90;99.90;;;;;;5064842;28;20135;-80
2022/08/18 05:20:52;;;;;;;10.05;7.60;;;17.00;99.90;;;;;;5073303;28;20158;-71
2022/08/18 05:23:19;;;;;;;8.65;7.85;;;17.10;99.90;;;;;;5051266;28;20039;-77
2022/08/18 05:25:45;;;;;;;8.48;7.65;;;17.20;99.90;;;;;;5066436;28;20025;-75
2022/08/18 05:28:13;;;;;;;8.43;7.63;;;17.30;99.90;;;;;;5062063;28;20194;-75
2022/08/18 05:30:40;;;;;;;9.05;7.45;;;17.50;99.90;;;;;;5063110;28;20492;-75
2022/08/18 05:33:09;;;;;;;8.48;7.57;;;17.60;99.90;;;;;;5062609;28;20028;-75
2022/08/18 05:35:46;;;;;;;8.68;6.70;;;17.80;99.90;;;;;;5062506;28;20023;-75
2022/08/18 05:38:14;;;;;;;8.70;7.80;;;17.90;99.90;;;;;;5062893;28;20067;-75
2022/08/18 05:40:41;;;;;;;9.13;7.22;;;18.10;99.90;;;;;;5063362;28;20153;-75
2022/08/18 05:43:08;;;;;;;8.52;7.50;;;18.20;99.90;;;;;;5070623;23;20405;-70
2022/08/18 05:45:34;;;;;;;7.82;7.03;;;18.40;99.90;;;;;;5047016;28;20025;-75
2022/08/18 05:48:00;;;;;;;9.52;7.50;;;18.40;99.90;;;;;;5042937;28;20044;-74
2022/08/18 05:50:28;;;;;;;8.27;6.28;;;18.50;99.90;;;;;;5044969;28;20378;-75
2022/08/18 05:53:02;;;;;;;8.60;6.82;;;18.60;99.90;;;;;;5041755;28;20021;-75
2022/08/18 05:58:30;;;;;;;8.10;6.97;;;18.80;99.90;;;;;;5046023;28;20040;-75
2022/08/18 06:01:00;;;;;;;8.23;7.03;;;18.70;99.90;;;;;;5044816;28;20029;-75
2022/08/18 06:03:34;;;;;;;8.23;7.20;;;18.70;99.90;;;;;;5042600;28;20021;-75
2022/08/18 06:06:07;;;;;;;8.75;7.50;;;18.70;99.90;;;;;;5046750;28;20092;-75
2022/08/18 06:08:39;;;;;;;7.15;6.40;;;18.80;99.90;;;;;;5044540;28;20033;-75
2022/08/18 06:11:05;;;;;;;8.23;7.35;;;18.80;99.90;;;;;;5041127;28;20064;-75
2022/08/18 06:13:37;;;;;;;9.00;7.25;;;18.80;99.90;;;;;;5044509;28;20500;-75
2022/08/18 06:16:43;;;;;;;10.20;6.68;;;18.80;99.90;;;;;;5044751;28;20076;-75
2022/08/18 06:19:33;;;;;;;8.98;6.93;;;18.90;99.90;;;;;;5050101;28;20438;-75
2022/08/18 06:22:19;;;;;;;7.72;6.68;;;18.90;99.90;;;;;;5051248;28;20354;-75
2022/08/18 06:25:05;;;;;;;9.27;6.88;;;18.90;99.90;;;;;;5048835;28;20045;-75
2022/08/18 06:27:43;;;;;;;7.30;6.57;;;18.90;99.90;;;;;;5052461;28;20448;-74
2022/08/18 06:30:41;;;;;;;8.65;6.70;;;19.00;99.90;;;;;;5059047;28;20031;-72
2022/08/18 06:33:24;;;;;;;7.78;6.75;;;19.00;99.90;;;;;;4981913;28;20522;-77
2022/08/18 06:36:01;;;;;;;8.40;7.25;;;19.00;99.90;;;;;;5051926;28;20439;-78
2022/08/18 06:39:10;;;;;;;8.65;6.75;;;18.90;99.90;;;;;;5053654;28;20028;-78
2022/08/18 06:41:47;;;;;;;8.35;7.45;;;18.90;99.90;;;;;;5045658;28;20790;-78
2022/08/18 06:44:32;;;;;;;9.07;7.13;;;18.90;99.90;;;;;;5043640;28;20061;-78
2022/08/18 06:47:10;;;;;;;9.38;7.13;;;18.80;99.90;;;;;;5047499;28;20052;-78
2022/08/18 06:50:08;;;;;;;8.48;7.68;;;18.90;99.90;;;;;;5047066;28;20035;-77
2022/08/18 06:52:36;;;;;;;9.75;8.07;;;18.90;99.90;;;;;;5039999;28;20052;-77
2022/08/18 06:55:07;;;;;;;8.60;7.57;;;18.90;99.90;;;;;;5048036;28;20033;-78
2022/08/18 06:57:51;;;;;;;10.30;7.47;;;18.90;99.90;;;;;;5049385;28;20087;-78
2022/08/18 07:00:17;;;;;;;8.48;7.53;;;19.00;99.90;;;;;;5048987;28;20028;-78
2022/08/18 07:02:48;;;;;;;14.38;7.93;;;19.10;99.90;;;;;;5050936;28;20492;-78
2022/08/18 07:05:25;;;;;;;13.60;7.50;;;19.10;99.90;;;;;;5060694;28;20127;-78
2022/08/18 07:08:19;;;;;;;11.75;8.48;;;19.00;99.90;;;;;;5055032;28;20042;-77
2022/08/18 07:10:51;;;;;;;9.25;8.00;;;19.00;99.90;;;;;;5057608;28;20167;-79
2022/08/18 07:13:28;;;;;;;9.27;8.00;;;19.00;99.90;;;;;;5054273;28;20040;-79
2022/08/18 07:16:13;;;;;;;9.40;8.25;;;19.10;99.90;;;;;;5057420;28;20032;-79
2022/08/18 07:18:38;;;;;;;8.85;7.95;;;19.10;99.90;;;;;;5060071;28;20120;-79
2022/08/18 07:21:04;;;;;;;8.50;7.60;;;19.20;99.90;;;;;;5061097;28;20108;-78
2022/08/18 07:23:38;;;;;;;10.73;7.63;;;19.30;99.90;;;;;;5049735;28;20052;-79
2022/08/18 07:26:14;;;;;;;10.20;8.73;;;19.40;99.90;;;;;;5047261;28;20021;-79
2022/08/18 07:28:49;;;;;;;10.02;8.05;;;19.60;99.90;;;;;;5054213;28;20068;-79
2022/08/18 07:31:26;;;;;;;11.32;8.25;;;19.70;99.90;;;;;;5051728;28;20033;-78
2022/08/18 07:34:07;;;;;;;8.63;7.13;;;19.80;99.90;;;;;;5049568;28;20381;-75
2022/08/18 07:36:40;;;;;;;8.20;7.30;;;19.90;99.90;;;;;;5056075;28;20138;-74
2022/08/18 07:39:33;;;;;;;8.35;7.05;;;20.00;99.90;;;;;;5055673;28;20503;-74
2022/08/18 07:42:53;;;;;;;9.30;6.63;;;20.20;99.90;;;;;;5047291;28;20045;-74
2022/08/18 07:45:27;;;;;;;9.65;6.80;;;20.30;99.90;;;;;;4962527;28;20129;-75
2022/08/18 07:48:03;;;;;;;8.10;7.25;;;20.40;99.90;;;;;;5035585;28;20036;-75
2022/08/18 07:50:38;;;;;;;7.57;6.53;;;20.50;99.90;;;;;;5022281;28;20397;-91
2022/08/18 07:53:25;;;;;;;7.72;6.93;;;20.50;99.90;;;;;;5051761;28;20100;-90
2022/08/18 07:55:59;;;;;;;8.07;7.22;;;20.60;99.90;;;;;;5044787;28;20032;-91
2022/08/18 07:58:34;;;;;;;7.70;6.90;;;20.70;99.90;;;;;;5053814;28;20025;-90
2022/08/18 08:01:18;;;;;;;7.60;6.80;;;20.60;99.90;;;;;;5044919;28;20031;-90
2022/08/18 08:04:01;;;;;;;8.32;6.88;;;20.70;99.90;;;;;;5056615;28;20021;-90
2022/08/18 08:06:37;;;;;;;8.10;6.80;;;20.80;99.90;;;;;;5057993;28;20616;-90
2022/08/18 08:09:28;;;;;;;11.20;7.97;;;20.80;99.90;;;;;;5048156;28;20047;-89
2022/08/18 08:12:03;;;;;;;9.32;6.90;;;20.90;99.90;;;;;;5051906;28;20021;-91
2022/08/18 08:14:38;;;;;;;;;;;20.90;99.90;;;;;;5045662;28;20435;-90
2022/08/18 08:17:32;;;;;;;9.38;7.88;;;21.00;99.90;;;;;;5052062;28;19912;-91
2022/08/18 08:20:21;;;;;;;8.45;7.55;;;21.00;99.90;;;;;;5057584;28;20053;-90
2022/08/18 08:23:21;;;;;;;8.30;7.22;;;21.00;99.90;;;;;;5046797;28;20025;-91
2022/08/18 08:25:56;;;;;;;8.50;7.60;;;21.10;99.90;;;;;;5052262;28;20044;-90
2022/08/18 08:28:32;;;;;;;8.88;7.65;;;21.20;99.90;;;;;;5049167;28;20128;-90
2022/08/18 08:31:03;;;;;;;7.72;6.97;;;21.20;99.90;;;;;;5057244;28;20496;-90
2022/08/18 08:33:48;;;;;;;8.07;7.28;;;21.40;99.90;;;;;;5061153;28;20056;-91
2022/08/18 08:36:34;;;;;;;7.85;7.00;;;21.50;99.90;;;;;;5040908;28;20059;-90
2022/08/18 08:39:10;;;;;;;7.40;6.70;;;21.50;99.90;;;;;;5053048;28;20021;-90
2022/08/18 08:41:49;;;;;;;7.60;6.40;;;21.60;99.90;;;;;;5051764;28;20048;-90
2022/08/18 08:44:39;;;;;;;8.35;6.53;;;21.70;99.90;;;;;;5034561;28;20037;-90
2022/08/18 08:47:14;;;;;;;8.00;6.57;;;21.80;99.90;;;;;;5031064;28;20037;-91
2022/08/18 08:49:45;;;;;;;;;;;21.90;99.90;;;;;;5035058;28;20029;-89
2022/08/18 08:52:19;;;;;;;7.80;7.00;;;22.00;99.90;;;;;;5029967;28;20299;-90
2022/08/18 08:55:01;;;;;;;8.70;6.25;;;22.10;99.90;;;;;;5035152;28;20021;-92
2022/08/18 08:57:34;;;;;;;7.22;6.28;;;22.10;99.90;;;;;;5026086;28;20036;-91
2022/08/18 09:00:04;;;;;;;11.35;6.60;;;22.10;99.90;;;;;;5011470;28;20033;-90
2022/08/18 09:02:48;;;;;;;6.95;6.22;;;22.10;99.90;;;;;;5018501;28;20026;-91
2022/08/18 09:05:20;;;;;;;6.68;5.97;;;22.10;99.90;;;;;;5015927;28;20037;-89
2022/08/18 09:08:05;;;;;;;8.60;7.60;;;22.10;99.90;;;;;;5030912;28;20056;-91
2022/08/18 09:11:19;;;;;;;8.20;6.20;;;22.20;99.90;;;;;;5029887;28;20032;-90
2022/08/18 09:14:22;;;;;;;7.43;6.50;;;22.30;99.90;;;;;;5008706;28;20045;-90
2022/08/18 09:17:41;;;;;;;7.53;6.78;;;22.40;99.90;;;;;;5024612;28;20029;-89
2022/08/18 09:20:25;;;;;;;8.85;6.28;;;22.60;99.90;;;;;;4982150;28;20092;-89
2022/08/18 09:22:58;;;;;;;9.65;6.57;;;22.70;99.90;;;;;;4986231;28;20034;-90
2022/08/18 09:25:38;;;;;;;7.75;5.90;;;22.90;99.90;;;;;;5016060;28;20030;-91
2022/08/18 09:28:11;;;;;;;6.82;5.63;;;23.10;99.90;;;;;;5014529;28;20030;-91
2022/08/18 09:31:01;;;;;;;6.72;5.30;;;23.20;99.90;;;;;;5021601;28;20049;-89
2022/08/18 09:33:45;;;;;;;7.75;5.80;;;23.40;99.90;;;;;;5028286;28;20104;-92
2022/08/18 09:36:34;;;;;;;10.15;6.43;;;23.70;99.90;;;;;;5034044;28;20028;-90
2022/08/18 09:42:14;;;;;;;9.50;6.57;;;24.40;99.90;;;;;;5031537;28;20116;-90
2022/08/18 09:44:40;;;;;;;6.70;5.53;;;24.50;99.90;;;;;;5039997;28;20505;-91
2022/08/18 09:47:07;;;;;;;9.07;5.25;;;24.70;99.90;;;;;;5047328;28;20045;-90
2022/08/18 09:49:42;;;;;;;7.85;6.43;;;25.00;99.90;;;;;;5045651;28;20082;-90
2022/08/18 09:52:19;;;;;;;8.23;6.40;;;25.10;99.90;;;;;;5053415;28;20030;-89
2022/08/18 09:55:25;;;;;;;9.15;6.18;;;25.30;99.90;;;;;;5060631;28;20028;-90
2022/08/18 09:58:18;;;;;;;8.95;7.45;;;25.30;99.90;;;;;;5051935;28;20043;-89
2022/08/18 10:00:44;;;;;;;9.80;7.65;;;25.40;99.90;;;;;;5040349;28;20024;-89
2022/08/18 10:03:22;;;;;;;10.88;6.97;;;25.30;99.90;;;;;;5045564;28;20124;-91
2022/08/18 10:06:04;;;;;;;11.38;7.60;;;25.20;99.90;;;;;;5052352;28;20039;-91
2022/08/18 10:08:53;;;;;;;9.55;7.78;;;25.20;99.90;;;;;;5068843;28;20047;-91
2022/08/18 10:11:41;;;;;;;11.98;7.10;;;25.20;99.90;;;;;;5053346;28;20554;-90
2022/08/18 10:14:44;;;;;;;10.02;7.10;;;25.30;99.90;;;;;;5038300;28;20056;-89
2022/08/18 10:17:25;;;;;;;8.35;6.82;;;25.30;99.90;;;;;;5050019;28;20108;-88
2022/08/18 10:20:17;;;;;;;6.82;6.13;;;25.60;99.90;;;;;;5042805;28;20470;-89
2022/08/18 10:22:54;;;;;;;7.88;6.63;;;25.90;99.90;;;;;;5051382;28;20386;-90
2022/08/18 10:25:45;;;;;;;8.18;6.88;;;26.40;99.90;;;;;;5052757;28;20032;-90
2022/08/18 10:28:49;;;;;;;8.52;6.97;;;26.40;99.90;;;;;;5042190;28;20025;-91
2022/08/18 10:31:14;;;;;;;9.02;7.90;;;26.50;99.90;;;;;;5037992;28;20427;-90
2022/08/18 10:34:09;;;;;;;11.30;7.38;;;26.10;99.90;;;;;;5052475;28;20105;-90
2022/08/18 10:36:49;;;;;;;10.90;7.63;;;25.80;99.90;;;;;;5053033;28;20100;-90
2022/08/18 10:39:54;;;;;;;13.07;7.93;;;25.40;99.90;;;;;;5036508;28;20109;-91
2022/08/18 10:42:53;;;;;;;10.23;8.07;;;25.10;99.90;;;;;;5015023;28;20057;-90
2022/08/18 10:45:29;;;;;;;9.38;7.65;;;24.90;99.90;;;;;;5043669;28;20383;-88
2022/08/18 10:48:08;;;;;;;8.02;7.10;;;24.90;99.90;;;;;;5052328;28;20040;-90
2022/08/18 10:50:52;;;;;;;6.85;6.10;;;25.20;99.90;;;;;;5045834;28;20032;-89
2022/08/18 10:53:54;;;;;;;8.57;6.40;;;25.50;99.90;;;;;;5052805;28;20040;-89
2022/08/18 10:56:38;;;;;;;7.88;6.13;;;26.00;99.90;;;;;;5052344;28;20079;-90
2022/08/18 10:59:19;;;;;;;11.70;7.45;;;26.50;99.90;;;;;;5039259;28;20124;-89
2022/08/18 11:01:47;;;;;;;11.10;6.70;;;26.70;99.90;;;;;;5052342;28;20076;-90
2022/08/18 11:04:34;;;;;;;9.75;7.00;;;26.80;99.90;;;;;;5042108;28;20028;-89
2022/08/18 11:07:10;;;;;;;7.78;7.03;;;26.80;99.90;;;;;;5055893;28;20095;-89
2022/08/18 11:09:37;;;;;;;7.47;6.43;;;26.90;99.90;;;;;;5054779;28;20154;-90
2022/08/18 11:12:04;;;;;;;7.10;5.85;;;27.00;99.90;;;;;;5055596;28;20028;-89
2022/08/18 11:14:54;;;;;;;9.90;6.13;;;27.00;99.90;;;;;;5055325;28;20013;-89
2022/08/18 11:17:43;;;;;;;7.57;5.82;;;27.10;99.90;;;;;;5054660;28;20009;-89
2022/08/18 11:20:13;;;;;;;6.13;4.93;;;27.10;99.90;;;;;;5054689;28;20029;-89
2022/08/18 11:23:00;;;;;;;5.72;4.78;;;27.20;99.90;;;;;;5055271;28;20032;-89
2022/08/18 11:25:32;;;;;;;7.00;5.18;;;27.50;99.90;;;;;;5047709;28;20026;-90
2022/08/18 11:27:59;;;;;;;7.22;5.43;;;27.60;99.90;;;;;;5049043;28;20143;-94
2022/08/18 11:31:17;;;;;;;;;;;;;;;;;;;;;
2022/08/18 11:33:42;;;;;;;9.98;5.82;;;27.60;99.90;;;;;;4949813;29;20047;-76
2022/08/18 11:36:08;;;;;;;9.38;6.68;;;27.80;99.90;;;;;;5039389;28;20404;-81
2022/08/18 11:38:36;;;;;;;7.68;6.07;;;27.90;99.90;;;;;;5052271;28;20032;-81
2022/08/18 11:41:24;;;;;;;7.57;5.60;;;27.80;99.90;;;;;;5049623;28;20086;-81
2022/08/18 11:43:56;;;;;;;5.95;5.30;;;27.60;99.90;;;;;;5048432;28;20051;-80
2022/08/18 11:46:29;;;;;;;8.15;6.78;;;27.70;99.90;;;;;;5050292;28;20079;-81
2022/08/18 11:48:55;;;;;;;7.22;5.85;;;28.00;99.90;;;;;;5052335;28;20104;-80
2022/08/18 11:51:24;;;;;;;8.80;5.82;;;28.00;99.90;;;;;;5051923;28;20021;-80
2022/08/18 11:54:01;;;;;;;11.07;5.68;;;28.10;99.90;;;;;;5052120;28;20124;-81
2022/08/18 11:56:31;;;;;;;8.15;5.43;;;28.10;99.90;;;;;;5051237;28;20385;-81
2022/08/18 11:59:04;;;;;;;5.95;4.65;;;28.20;99.90;;;;;;5047482;28;20118;-81
2022/08/18 12:01:32;;;;;;;6.85;4.70;;;28.30;99.90;;;;;;5051382;28;20029;-81
2022/08/18 12:04:13;;;;;;;9.10;5.90;;;28.70;99.90;;;;;;5050116;28;20059;-80
2022/08/18 12:06:39;;;;;;;6.95;5.28;;;28.60;99.90;;;;;;5058197;28;20020;-80
2022/08/18 12:09:17;;;;;;;7.05;4.95;;;28.90;99.90;;;;;;5054601;28;20028;-80
2022/08/18 12:11:52;;;;;;;6.57;5.75;;;29.00;99.90;;;;;;5062012;28;20119;-77
2022/08/18 12:14:21;;;;;;;9.48;5.30;;;29.10;99.90;;;;;;5056072;28;20017;-77
2022/08/18 12:16:47;;;;;;;9.43;6.00;;;29.20;99.90;;;;;;5051253;28;20071;-77
2022/08/18 12:19:14;;;;;;;7.53;5.05;;;29.40;99.90;;;;;;5051139;28;20044;-77
2022/08/18 12:21:52;;;;;;;7.43;4.80;;;29.30;99.90;;;;;;5052070;28;20025;-77
2022/08/18 12:24:27;;;;;;;8.20;4.85;;;29.20;99.90;;;;;;5053989;28;20070;-77
2022/08/18 12:26:53;;;;;;;7.63;5.45;;;29.10;99.90;;;;;;5059411;28;20017;-77
2022/08/18 12:29:19;;;;;;;10.70;6.03;;;29.10;99.90;;;;;;5045573;28;20024;-77
2022/08/18 12:31:47;;;;;;;7.13;5.80;;;28.90;99.90;;;;;;5049655;28;20041;-77
2022/08/18 12:34:12;;;;;;;6.30;5.70;;;29.00;99.90;;;;;;5047976;28;20025;-77
2022/08/18 12:36:39;;;;;;;7.30;5.65;;;28.90;99.90;;;;;;5043523;28;20021;-77
2022/08/18 12:39:05;;;;;;;6.00;5.07;;;28.70;99.90;;;;;;5051363;28;20017;-77
2022/08/18 12:41:30;;;;;;;7.50;5.60;;;28.60;99.90;;;;;;5051364;28;20024;-77
2022/08/18 12:43:56;;;;;;;6.53;4.97;;;28.50;99.90;;;;;;5048387;28;20044;-77
2022/08/18 12:46:22;;;;;;;5.85;5.00;;;28.50;99.90;;;;;;5051240;28;20876;-77
2022/08/18 12:48:48;;;;;;;5.82;4.78;;;28.30;99.90;;;;;;5051267;28;20082;-77
2022/08/18 12:51:14;;;;;;;6.70;5.35;;;28.00;99.90;;;;;;5050946;28;20028;-77
2022/08/18 12:53:40;;;;;;;8.32;5.55;;;27.80;99.90;;;;;;5047880;28;20032;-77
2022/08/18 12:56:14;;;;;;;8.25;4.75;;;27.40;99.90;;;;;;5051175;28;20116;-76
2022/08/18 12:58:39;;;;;;;5.82;5.00;;;27.20;99.90;;;;;;5050797;28;20025;-77
2022/08/18 13:01:05;;;;;;;7.85;4.97;;;27.20;99.90;;;;;;5051573;28;20051;-77
2022/08/18 13:03:30;;;;;;;10.27;4.93;;;27.20;99.90;;;;;;5048705;28;20814;-76
2022/08/18 13:05:56;;;;;;;7.72;4.43;;;27.20;99.90;;;;;;5046737;28;20041;-77
2022/08/18 13:08:22;;;;;;;5.80;4.57;;;27.10;99.90;;;;;;5045363;28;20040;-77
2022/08/18 13:10:47;;;;;;;7.68;5.00;;;27.00;99.90;;;;;;5050243;28;20025;-77
2022/08/18 13:13:15;;;;;;;7.13;5.75;;;26.90;99.90;;;;;;5045215;28;20032;-77
2022/08/18 13:15:41;;;;;;;7.03;5.03;;;26.90;99.90;;;;;;5048952;28;20101;-77
2022/08/18 13:18:07;;;;;;;10.43;4.93;;;26.80;99.90;;;;;;5046971;28;20036;-77
2022/08/18 13:20:33;;;;;;;7.40;4.78;;;26.70;99.90;;;;;;5034842;28;20021;-76
2022/08/18 13:22:58;;;;;;;7.45;5.18;;;26.70;99.90;;;;;;5048540;28;20537;-77
2022/08/18 13:25:25;;;;;;;6.40;4.82;;;26.70;99.90;;;;;;5044531;28;20048;-77
2022/08/18 13:27:51;;;;;;;9.35;5.00;;;26.70;99.90;;;;;;5046073;28;20545;-76
2022/08/18 13:30:16;;;;;;;7.38;5.45;;;26.70;99.90;;;;;;5040182;28;20037;-77
2022/08/18 13:32:42;;;;;;;5.68;5.07;;;26.70;99.90;;;;;;5050385;28;20090;-77